Terminal Aerodrome Forecast
Issued by NWS

Home | Current Version | Previous Version | Text Only | Print | Product List | Glossary On
Versions: 1 2 3 4 5 6 7 8 9 10 11 12 13 14 15 16
000
FTUS44 KTSA 202300
TAFRVS
TAF
KRVS 202338Z 2100/2124 00000KT P6SM SCT250
     FM210900 00000KT 3SM BR FEW250
      TEMPO 2109/2111 1SM BR
     FM211100 16002KT 2SM BR FEW250
     FM211500 15004KT P6SM FEW250=

USA.gov is the U.S. government's official web portal to all federal, state and local government web resources and services.